Aviation Digital Data Service (ADDS)

Output produced by METARs form (0028 UTC 19 August 2019)
found at http://www.aviationweather.gov/metar/data/
 
METAR text: ZYTX 190000Z 15002MPS CAVOK 23/20 Q1011 NOSIG
Conditions at: ZYTX (SHENYANG/TAOKIAN, CN) observed 0000 UTC 19 August 2019
Temperature: 23.0°C (73°F)
Dewpoint: 20.0°C (68°F) [RH = 83%]
Pressure (altimeter): 29.85 inches Hg (1011.0 mb)
Winds: from the SSE (150 degrees) at 5 MPH (4 knots; 2.1 m/s)
Visibility: 6 or more miles (10+ km)
Ceiling: ceiling and visibility are OK
Clouds: unknown
Weather: no significant weather observed at this time

METAR text: ZYTX 182330Z VRB02G07MPS CAVOK 21/20 Q1011 NOSIG
Conditions at: ZYTX (SHENYANG/TAOKIAN, CN) observed 2330 UTC 18 August 2019
Temperature: 21.0°C (70°F)
Dewpoint: 20.0°C (68°F) [RH = 94%]
Pressure (altimeter): 29.85 inches Hg (1011.0 mb)
Winds: variable direction winds at 5 MPH (4 knots; 2.1 m/s)
gusting to 16 MPH (14 knots; 7.2 m/s)
Visibility: 6 or more miles (10+ km)
Ceiling: ceiling and visibility are OK
Clouds: unknown
Weather: no significant weather observed at this time

METAR text: ZYTX 182300Z VRB01MPS CAVOK 20/19 Q1011 NOSIG
Conditions at: ZYTX (SHENYANG/TAOKIAN, CN) observed 2300 UTC 18 August 2019
Temperature: 20.0°C (68°F)
Dewpoint: 19.0°C (66°F) [RH = 94%]
Pressure (altimeter): 29.85 inches Hg (1011.0 mb)
Winds: variable direction winds at 2 MPH (2 knots; 1.0 m/s)
Visibility: 6 or more miles (10+ km)
Ceiling: ceiling and visibility are OK
Clouds: unknown
Weather: no significant weather observed at this time

METAR text: ZYTX 182230Z 13002MPS 8000 NSC 19/18 Q1011 NOSIG
Conditions at: ZYTX (SHENYANG/TAOKIAN, CN) observed 2230 UTC 18 August 2019
Temperature: 19.0°C (66°F)
Dewpoint: 18.0°C (64°F) [RH = 94%]
Pressure (altimeter): 29.85 inches Hg (1011.0 mb)
Winds: from the SE (130 degrees) at 5 MPH (4 knots; 2.1 m/s)
Visibility: 5 miles ( 8 km)
Ceiling: at least 12,000 feet AGL
Clouds: sky clear below 12,000 feet AGL
Weather: no significant weather observed at this time

METAR text: ZYTX 182200Z 12001MPS 8000 NSC 18/18 Q1010 NOSIG
Conditions at: ZYTX (SHENYANG/TAOKIAN, CN) observed 2200 UTC 18 August 2019
Temperature: 18.0°C (64°F)
Dewpoint: 18.0°C (64°F) [RH = 100%]
Pressure (altimeter): 29.82 inches Hg (1010.0 mb)
Winds: from the ESE (120 degrees) at 2 MPH (2 knots; 1.0 m/s)
Visibility: 5 miles ( 8 km)
Ceiling: at least 12,000 feet AGL
Clouds: sky clear below 12,000 feet AGL
Weather: no significant weather observed at this time

METAR text: ZYTX 182130Z 00000MPS 8000 NSC 18/18 Q1010 NOSIG
Conditions at: ZYTX (SHENYANG/TAOKIAN, CN) observed 2130 UTC 18 August 2019
Temperature: 18.0°C (64°F)
Dewpoint: 18.0°C (64°F) [RH = 100%]
Pressure (altimeter): 29.82 inches Hg (1010.0 mb)
Winds: calm
Visibility: 5 miles ( 8 km)
Ceiling: at least 12,000 feet AGL
Clouds: sky clear below 12,000 feet AGL
Weather: no significant weather observed at this time

METAR text: ZYTX 182100Z 15002MPS 7000 NSC 18/18 Q1010 NOSIG
Conditions at: ZYTX (SHENYANG/TAOKIAN, CN) observed 2100 UTC 18 August 2019
Temperature: 18.0°C (64°F)
Dewpoint: 18.0°C (64°F) [RH = 100%]
Pressure (altimeter): 29.82 inches Hg (1010.0 mb)
Winds: from the SSE (150 degrees) at 5 MPH (4 knots; 2.1 m/s)
Visibility: 4 miles ( 7 km)
Ceiling: at least 12,000 feet AGL
Clouds: sky clear below 12,000 feet AGL
Weather: no significant weather observed at this time

METAR text: ZYTX 182030Z 13003MPS CAVOK 18/18 Q1009 NOSIG
Conditions at: ZYTX (SHENYANG/TAOKIAN, CN) observed 2030 UTC 18 August 2019
Temperature: 18.0°C (64°F)
Dewpoint: 18.0°C (64°F) [RH = 100%]
Pressure (altimeter): 29.79 inches Hg (1009.0 mb)
Winds: from the SE (130 degrees) at 7 MPH (6 knots; 3.1 m/s)
Visibility: 6 or more miles (10+ km)
Ceiling: ceiling and visibility are OK
Clouds: unknown
Weather: no significant weather observed at this time

METAR text: ZYTX 182000Z 13003MPS CAVOK 18/18 Q1009 NOSIG
Conditions at: ZYTX (SHENYANG/TAOKIAN, CN) observed 2000 UTC 18 August 2019
Temperature: 18.0°C (64°F)
Dewpoint: 18.0°C (64°F) [RH = 100%]
Pressure (altimeter): 29.79 inches Hg (1009.0 mb)
Winds: from the SE (130 degrees) at 7 MPH (6 knots; 3.1 m/s)
Visibility: 6 or more miles (10+ km)
Ceiling: ceiling and visibility are OK
Clouds: unknown
Weather: no significant weather observed at this time

METAR text: ZYTX 181930Z 12002MPS CAVOK 18/18 Q1009 NOSIG
Conditions at: ZYTX (SHENYANG/TAOKIAN, CN) observed 1930 UTC 18 August 2019
Temperature: 18.0°C (64°F)
Dewpoint: 18.0°C (64°F) [RH = 100%]
Pressure (altimeter): 29.79 inches Hg (1009.0 mb)
Winds: from the ESE (120 degrees) at 5 MPH (4 knots; 2.1 m/s)
Visibility: 6 or more miles (10+ km)
Ceiling: ceiling and visibility are OK
Clouds: unknown
Weather: no significant weather observed at this time

METAR text: ZYTX 181900Z 00000MPS CAVOK 17/17 Q1009 NOSIG
Conditions at: ZYTX (SHENYANG/TAOKIAN, CN) observed 1900 UTC 18 August 2019
Temperature: 17.0°C (63°F)
Dewpoint: 17.0°C (63°F) [RH = 100%]
Pressure (altimeter): 29.79 inches Hg (1009.0 mb)
Winds: calm
Visibility: 6 or more miles (10+ km)
Ceiling: ceiling and visibility are OK
Clouds: unknown
Weather: no significant weather observed at this time

METAR text: ZYTX 181830Z 14002MPS CAVOK 18/18 Q1009 NOSIG
Conditions at: ZYTX (SHENYANG/TAOKIAN, CN) observed 1830 UTC 18 August 2019
Temperature: 18.0°C (64°F)
Dewpoint: 18.0°C (64°F) [RH = 100%]
Pressure (altimeter): 29.79 inches Hg (1009.0 mb)
Winds: from the SE (140 degrees) at 5 MPH (4 knots; 2.1 m/s)
Visibility: 6 or more miles (10+ km)
Ceiling: ceiling and visibility are OK
Clouds: unknown
Weather: no significant weather observed at this time

METAR text: ZYTX 181800Z 14002MPS CAVOK 18/18 Q1009 NOSIG
Conditions at: ZYTX (SHENYANG/TAOKIAN, CN) observed 1800 UTC 18 August 2019
Temperature: 18.0°C (64°F)
Dewpoint: 18.0°C (64°F) [RH = 100%]
Pressure (altimeter): 29.79 inches Hg (1009.0 mb)
Winds: from the SE (140 degrees) at 5 MPH (4 knots; 2.1 m/s)
Visibility: 6 or more miles (10+ km)
Ceiling: ceiling and visibility are OK
Clouds: unknown
Weather: no significant weather observed at this time

METAR text: ZYTX 181730Z 14002MPS CAVOK 18/18 Q1009 NOSIG
Conditions at: ZYTX (SHENYANG/TAOKIAN, CN) observed 1730 UTC 18 August 2019
Temperature: 18.0°C (64°F)
Dewpoint: 18.0°C (64°F) [RH = 100%]
Pressure (altimeter): 29.79 inches Hg (1009.0 mb)
Winds: from the SE (140 degrees) at 5 MPH (4 knots; 2.1 m/s)
Visibility: 6 or more miles (10+ km)
Ceiling: ceiling and visibility are OK
Clouds: unknown
Weather: no significant weather observed at this time

METAR text: ZYTX 181700Z VRB01MPS CAVOK 18/18 Q1009 NOSIG
Conditions at: ZYTX (SHENYANG/TAOKIAN, CN) observed 1700 UTC 18 August 2019
Temperature: 18.0°C (64°F)
Dewpoint: 18.0°C (64°F) [RH = 100%]
Pressure (altimeter): 29.79 inches Hg (1009.0 mb)
Winds: variable direction winds at 2 MPH (2 knots; 1.0 m/s)
Visibility: 6 or more miles (10+ km)
Ceiling: ceiling and visibility are OK
Clouds: unknown
Weather: no significant weather observed at this time

METAR text: ZYTX 181630Z VRB01MPS CAVOK 18/18 Q1009 NOSIG
Conditions at: ZYTX (SHENYANG/TAOKIAN, CN) observed 1630 UTC 18 August 2019
Temperature: 18.0°C (64°F)
Dewpoint: 18.0°C (64°F) [RH = 100%]
Pressure (altimeter): 29.79 inches Hg (1009.0 mb)
Winds: variable direction winds at 2 MPH (2 knots; 1.0 m/s)
Visibility: 6 or more miles (10+ km)
Ceiling: ceiling and visibility are OK
Clouds: unknown
Weather: no significant weather observed at this time

METAR text: ZYTX 181600Z VRB01MPS CAVOK 19/18 Q1008 NOSIG
Conditions at: ZYTX (SHENYANG/TAOKIAN, CN) observed 1600 UTC 18 August 2019
Temperature: 19.0°C (66°F)
Dewpoint: 18.0°C (64°F) [RH = 94%]
Pressure (altimeter): 29.76 inches Hg (1008.0 mb)
Winds: variable direction winds at 2 MPH (2 knots; 1.0 m/s)
Visibility: 6 or more miles (10+ km)
Ceiling: ceiling and visibility are OK
Clouds: unknown
Weather: no significant weather observed at this time

METAR text: ZYTX 181530Z 16001MPS CAVOK 19/19 Q1008 NOSIG
Conditions at: ZYTX (SHENYANG/TAOKIAN, CN) observed 1530 UTC 18 August 2019
Temperature: 19.0°C (66°F)
Dewpoint: 19.0°C (66°F) [RH = 100%]
Pressure (altimeter): 29.76 inches Hg (1008.0 mb)
Winds: from the SSE (160 degrees) at 2 MPH (2 knots; 1.0 m/s)
Visibility: 6 or more miles (10+ km)
Ceiling: ceiling and visibility are OK
Clouds: unknown
Weather: no significant weather observed at this time

METAR text: ZYTX 181500Z VRB01MPS CAVOK 19/18 Q1008 NOSIG
Conditions at: ZYTX (SHENYANG/TAOKIAN, CN) observed 1500 UTC 18 August 2019
Temperature: 19.0°C (66°F)
Dewpoint: 18.0°C (64°F) [RH = 94%]
Pressure (altimeter): 29.76 inches Hg (1008.0 mb)
Winds: variable direction winds at 2 MPH (2 knots; 1.0 m/s)
Visibility: 6 or more miles (10+ km)
Ceiling: ceiling and visibility are OK
Clouds: unknown
Weather: no significant weather observed at this time

METAR text: ZYTX 181430Z 16002MPS 120V230 CAVOK 20/19 Q1008 NOSIG
Conditions at: ZYTX (SHENYANG/TAOKIAN, CN) observed 1430 UTC 18 August 2019
Temperature: 20.0°C (68°F)
Dewpoint: 19.0°C (66°F) [RH = 94%]
Pressure (altimeter): 29.76 inches Hg (1008.0 mb)
Winds: from the SSE (160 degrees) at 5 MPH (4 knots; 2.1 m/s)
Visibility: 6 or more miles (10+ km)
Ceiling: ceiling and visibility are OK
Clouds: unknown
Weather: no significant weather observed at this time

METAR text: ZYTX 181400Z 16002MPS CAVOK 20/19 Q1008 NOSIG
Conditions at: ZYTX (SHENYANG/TAOKIAN, CN) observed 1400 UTC 18 August 2019
Temperature: 20.0°C (68°F)
Dewpoint: 19.0°C (66°F) [RH = 94%]
Pressure (altimeter): 29.76 inches Hg (1008.0 mb)
Winds: from the SSE (160 degrees) at 5 MPH (4 knots; 2.1 m/s)
Visibility: 6 or more miles (10+ km)
Ceiling: ceiling and visibility are OK
Clouds: unknown
Weather: no significant weather observed at this time

METAR text: ZYTX 181330Z 16002MPS CAVOK 20/19 Q1008 NOSIG
Conditions at: ZYTX (SHENYANG/TAOKIAN, CN) observed 1330 UTC 18 August 2019
Temperature: 20.0°C (68°F)
Dewpoint: 19.0°C (66°F) [RH = 94%]
Pressure (altimeter): 29.76 inches Hg (1008.0 mb)
Winds: from the SSE (160 degrees) at 5 MPH (4 knots; 2.1 m/s)
Visibility: 6 or more miles (10+ km)
Ceiling: ceiling and visibility are OK
Clouds: unknown
Weather: no significant weather observed at this time

METAR text: ZYTX 181300Z 16002G07MPS 140V200 CAVOK 21/19 Q1007 NOSIG
Conditions at: ZYTX (SHENYANG/TAOKIAN, CN) observed 1300 UTC 18 August 2019
Temperature: 21.0°C (70°F)
Dewpoint: 19.0°C (66°F) [RH = 88%]
Pressure (altimeter): 29.73 inches Hg (1007.0 mb)
Winds: from the SSE (160 degrees) at 5 MPH (4 knots; 2.1 m/s)
gusting to 16 MPH (14 knots; 7.2 m/s)
Visibility: 6 or more miles (10+ km)
Ceiling: ceiling and visibility are OK
Clouds: unknown
Weather: no significant weather observed at this time

METAR text: ZYTX 181230Z 18002MPS 150V230 CAVOK 22/19 Q1007 NOSIG
Conditions at: ZYTX (SHENYANG/TAOKIAN, CN) observed 1230 UTC 18 August 2019
Temperature: 22.0°C (72°F)
Dewpoint: 19.0°C (66°F) [RH = 83%]
Pressure (altimeter): 29.73 inches Hg (1007.0 mb)
Winds: from the S (180 degrees) at 5 MPH (4 knots; 2.1 m/s)
Visibility: 6 or more miles (10+ km)
Ceiling: ceiling and visibility are OK
Clouds: unknown
Weather: no significant weather observed at this time

METAR text: ZYTX 181200Z 18002MPS CAVOK 21/19 Q1007 NOSIG
Conditions at: ZYTX (SHENYANG/TAOKIAN, CN) observed 1200 UTC 18 August 2019
Temperature: 21.0°C (70°F)
Dewpoint: 19.0°C (66°F) [RH = 88%]
Pressure (altimeter): 29.73 inches Hg (1007.0 mb)
Winds: from the S (180 degrees) at 5 MPH (4 knots; 2.1 m/s)
Visibility: 6 or more miles (10+ km)
Ceiling: ceiling and visibility are OK
Clouds: unknown
Weather: no significant weather observed at this time

METAR text: ZYTX 181130Z 20002MPS 160V240 CAVOK 22/19 Q1007 NOSIG
Conditions at: ZYTX (SHENYANG/TAOKIAN, CN) observed 1130 UTC 18 August 2019
Temperature: 22.0°C (72°F)
Dewpoint: 19.0°C (66°F) [RH = 83%]
Pressure (altimeter): 29.73 inches Hg (1007.0 mb)
Winds: from the SSW (200 degrees) at 5 MPH (4 knots; 2.1 m/s)
Visibility: 6 or more miles (10+ km)
Ceiling: ceiling and visibility are OK
Clouds: unknown
Weather: no significant weather observed at this time

METAR text: ZYTX 181100Z VRB01MPS CAVOK 22/20 Q1006 NOSIG
Conditions at: ZYTX (SHENYANG/TAOKIAN, CN) observed 1100 UTC 18 August 2019
Temperature: 22.0°C (72°F)
Dewpoint: 20.0°C (68°F) [RH = 88%]
Pressure (altimeter): 29.70 inches Hg (1006.0 mb)
Winds: variable direction winds at 2 MPH (2 knots; 1.0 m/s)
Visibility: 6 or more miles (10+ km)
Ceiling: ceiling and visibility are OK
Clouds: unknown
Weather: no significant weather observed at this time

METAR text: ZYTX 181030Z 23002MPS CAVOK 23/20 Q1006 NOSIG
Conditions at: ZYTX (SHENYANG/TAOKIAN, CN) observed 1030 UTC 18 August 2019
Temperature: 23.0°C (73°F)
Dewpoint: 20.0°C (68°F) [RH = 83%]
Pressure (altimeter): 29.70 inches Hg (1006.0 mb)
Winds: from the SW (230 degrees) at 5 MPH (4 knots; 2.1 m/s)
Visibility: 6 or more miles (10+ km)
Ceiling: ceiling and visibility are OK
Clouds: unknown
Weather: no significant weather observed at this time

METAR text: ZYTX 181000Z 24002MPS CAVOK 24/19 Q1006 NOSIG
Conditions at: ZYTX (SHENYANG/TAOKIAN, CN) observed 1000 UTC 18 August 2019
Temperature: 24.0°C (75°F)
Dewpoint: 19.0°C (66°F) [RH = 74%]
Pressure (altimeter): 29.70 inches Hg (1006.0 mb)
Winds: from the WSW (240 degrees) at 5 MPH (4 knots; 2.1 m/s)
Visibility: 6 or more miles (10+ km)
Ceiling: ceiling and visibility are OK
Clouds: unknown
Weather: no significant weather observed at this time

METAR text: ZYTX 180930Z 24002MPS 9999 FEW040TCU 25/18 Q1006 NOSIG
Conditions at: ZYTX (SHENYANG/TAOKIAN, CN) observed 0930 UTC 18 August 2019
Temperature: 25.0°C (77°F)
Dewpoint: 18.0°C (64°F) [RH = 65%]
Pressure (altimeter): 29.70 inches Hg (1006.0 mb)
Winds: from the WSW (240 degrees) at 5 MPH (4 knots; 2.1 m/s)
Visibility: 6 or more miles (10+ km)
Ceiling: at least 12,000 feet AGL
Clouds: few clouds at 4000 feet AGL
Weather: no significant weather observed at this time

METAR text: ZYTX 180900Z 24002MPS 210V290 CAVOK 26/18 Q1006 NOSIG
Conditions at: ZYTX (SHENYANG/TAOKIAN, CN) observed 0900 UTC 18 August 2019
Temperature: 26.0°C (79°F)
Dewpoint: 18.0°C (64°F) [RH = 61%]
Pressure (altimeter): 29.70 inches Hg (1006.0 mb)
Winds: from the WSW (240 degrees) at 5 MPH (4 knots; 2.1 m/s)
Visibility: 6 or more miles (10+ km)
Ceiling: ceiling and visibility are OK
Clouds: unknown
Weather: no significant weather observed at this time

METAR text: ZYTX 180830Z 25002MPS 220V290 9999 SCT040 26/18 Q1006 NOSIG
Conditions at: ZYTX (SHENYANG/TAOKIAN, CN) observed 0830 UTC 18 August 2019
Temperature: 26.0°C (79°F)
Dewpoint: 18.0°C (64°F) [RH = 61%]
Pressure (altimeter): 29.70 inches Hg (1006.0 mb)
Winds: from the WSW (250 degrees) at 5 MPH (4 knots; 2.1 m/s)
Visibility: 6 or more miles (10+ km)
Ceiling: at least 12,000 feet AGL
Clouds: scattered clouds at 4000 feet AGL
Weather: no significant weather observed at this time

METAR text: ZYTX 180800Z 26003MPS 230V290 9999 SCT040 26/18 Q1006 NOSIG
Conditions at: ZYTX (SHENYANG/TAOKIAN, CN) observed 0800 UTC 18 August 2019
Temperature: 26.0°C (79°F)
Dewpoint: 18.0°C (64°F) [RH = 61%]
Pressure (altimeter): 29.70 inches Hg (1006.0 mb)
Winds: from the W (260 degrees) at 7 MPH (6 knots; 3.1 m/s)
Visibility: 6 or more miles (10+ km)
Ceiling: at least 12,000 feet AGL
Clouds: scattered clouds at 4000 feet AGL
Weather: no significant weather observed at this time

METAR text: ZYTX 180730Z 25003MPS 200V310 9999 BKN033 26/18 Q1006 NOSIG
Conditions at: ZYTX (SHENYANG/TAOKIAN, CN) observed 0730 UTC 18 August 2019
Temperature: 26.0°C (79°F)
Dewpoint: 18.0°C (64°F) [RH = 61%]
Pressure (altimeter): 29.70 inches Hg (1006.0 mb)
Winds: from the WSW (250 degrees) at 7 MPH (6 knots; 3.1 m/s)
Visibility: 6 or more miles (10+ km)
Ceiling: 3300 feet AGL
Clouds: broken clouds at 3300 feet AGL
Weather: no significant weather observed at this time

METAR text: ZYTX 180700Z 23003MPS 170V270 9999 BKN033 26/19 Q1006 NOSIG
Conditions at: ZYTX (SHENYANG/TAOKIAN, CN) observed 0700 UTC 18 August 2019
Temperature: 26.0°C (79°F)
Dewpoint: 19.0°C (66°F) [RH = 65%]
Pressure (altimeter): 29.70 inches Hg (1006.0 mb)
Winds: from the SW (230 degrees) at 7 MPH (6 knots; 3.1 m/s)
Visibility: 6 or more miles (10+ km)
Ceiling: 3300 feet AGL
Clouds: broken clouds at 3300 feet AGL
Weather: no significant weather observed at this time

METAR text: ZYTX 180630Z 26003MPS 220V310 9999 BKN033 26/18 Q1006 NOSIG
Conditions at: ZYTX (SHENYANG/TAOKIAN, CN) observed 0630 UTC 18 August 2019
Temperature: 26.0°C (79°F)
Dewpoint: 18.0°C (64°F) [RH = 61%]
Pressure (altimeter): 29.70 inches Hg (1006.0 mb)
Winds: from the W (260 degrees) at 7 MPH (6 knots; 3.1 m/s)
Visibility: 6 or more miles (10+ km)
Ceiling: 3300 feet AGL
Clouds: broken clouds at 3300 feet AGL
Weather: no significant weather observed at this time

METAR text: ZYTX 180600Z 22004MPS 9999 BKN033 26/18 Q1006 NOSIG
Conditions at: ZYTX (SHENYANG/TAOKIAN, CN) observed 0600 UTC 18 August 2019
Temperature: 26.0°C (79°F)
Dewpoint: 18.0°C (64°F) [RH = 61%]
Pressure (altimeter): 29.70 inches Hg (1006.0 mb)
Winds: from the SW (220 degrees) at 9 MPH (8 knots; 4.1 m/s)
Visibility: 6 or more miles (10+ km)
Ceiling: 3300 feet AGL
Clouds: broken clouds at 3300 feet AGL
Weather: no significant weather observed at this time

METAR text: ZYTX 180530Z 24004MPS 190V270 9999 BKN033 26/18 Q1006 NOSIG
Conditions at: ZYTX (SHENYANG/TAOKIAN, CN) observed 0530 UTC 18 August 2019
Temperature: 26.0°C (79°F)
Dewpoint: 18.0°C (64°F) [RH = 61%]
Pressure (altimeter): 29.70 inches Hg (1006.0 mb)
Winds: from the WSW (240 degrees) at 9 MPH (8 knots; 4.1 m/s)
Visibility: 6 or more miles (10+ km)
Ceiling: 3300 feet AGL
Clouds: broken clouds at 3300 feet AGL
Weather: no significant weather observed at this time

METAR text: ZYTX 180500Z 23004MPS 170V270 9999 BKN033 26/18 Q1006 NOSIG
Conditions at: ZYTX (SHENYANG/TAOKIAN, CN) observed 0500 UTC 18 August 2019
Temperature: 26.0°C (79°F)
Dewpoint: 18.0°C (64°F) [RH = 61%]
Pressure (altimeter): 29.70 inches Hg (1006.0 mb)
Winds: from the SW (230 degrees) at 9 MPH (8 knots; 4.1 m/s)
Visibility: 6 or more miles (10+ km)
Ceiling: 3300 feet AGL
Clouds: broken clouds at 3300 feet AGL
Weather: no significant weather observed at this time

METAR text: ZYTX 180430Z 23004MPS 200V260 9999 SCT033 26/18 Q1006 NOSIG
Conditions at: ZYTX (SHENYANG/TAOKIAN, CN) observed 0430 UTC 18 August 2019
Temperature: 26.0°C (79°F)
Dewpoint: 18.0°C (64°F) [RH = 61%]
Pressure (altimeter): 29.70 inches Hg (1006.0 mb)
Winds: from the SW (230 degrees) at 9 MPH (8 knots; 4.1 m/s)
Visibility: 6 or more miles (10+ km)
Ceiling: at least 12,000 feet AGL
Clouds: scattered clouds at 3300 feet AGL
Weather: no significant weather observed at this time

METAR text: ZYTX 180400Z 22004MPS 9999 SCT033 25/17 Q1006 NOSIG
Conditions at: ZYTX (SHENYANG/TAOKIAN, CN) observed 0400 UTC 18 August 2019
Temperature: 25.0°C (77°F)
Dewpoint: 17.0°C (63°F) [RH = 61%]
Pressure (altimeter): 29.70 inches Hg (1006.0 mb)
Winds: from the SW (220 degrees) at 9 MPH (8 knots; 4.1 m/s)
Visibility: 6 or more miles (10+ km)
Ceiling: at least 12,000 feet AGL
Clouds: scattered clouds at 3300 feet AGL
Weather: no significant weather observed at this time

METAR text: ZYTX 180330Z 25004MPS 210V270 9999 SCT033 25/17 Q1006 NOSIG
Conditions at: ZYTX (SHENYANG/TAOKIAN, CN) observed 0330 UTC 18 August 2019
Temperature: 25.0°C (77°F)
Dewpoint: 17.0°C (63°F) [RH = 61%]
Pressure (altimeter): 29.70 inches Hg (1006.0 mb)
Winds: from the WSW (250 degrees) at 9 MPH (8 knots; 4.1 m/s)
Visibility: 6 or more miles (10+ km)
Ceiling: at least 12,000 feet AGL
Clouds: scattered clouds at 3300 feet AGL
Weather: no significant weather observed at this time

METAR text: ZYTX 180300Z 26003MPS 230V300 9999 SCT033 25/18 Q1006 NOSIG
Conditions at: ZYTX (SHENYANG/TAOKIAN, CN) observed 0300 UTC 18 August 2019
Temperature: 25.0°C (77°F)
Dewpoint: 18.0°C (64°F) [RH = 65%]
Pressure (altimeter): 29.70 inches Hg (1006.0 mb)
Winds: from the W (260 degrees) at 7 MPH (6 knots; 3.1 m/s)
Visibility: 6 or more miles (10+ km)
Ceiling: at least 12,000 feet AGL
Clouds: scattered clouds at 3300 feet AGL
Weather: no significant weather observed at this time

METAR text: ZYTX 180230Z 24004MPS 200V280 9999 SCT033 25/18 Q1006 NOSIG
Conditions at: ZYTX (SHENYANG/TAOKIAN, CN) observed 0230 UTC 18 August 2019
Temperature: 25.0°C (77°F)
Dewpoint: 18.0°C (64°F) [RH = 65%]
Pressure (altimeter): 29.70 inches Hg (1006.0 mb)
Winds: from the WSW (240 degrees) at 9 MPH (8 knots; 4.1 m/s)
Visibility: 6 or more miles (10+ km)
Ceiling: at least 12,000 feet AGL
Clouds: scattered clouds at 3300 feet AGL
Weather: no significant weather observed at this time

METAR text: ZYTX 180200Z 24004MPS 9999 SCT033 24/19 Q1006 NOSIG
Conditions at: ZYTX (SHENYANG/TAOKIAN, CN) observed 0200 UTC 18 August 2019
Temperature: 24.0°C (75°F)
Dewpoint: 19.0°C (66°F) [RH = 74%]
Pressure (altimeter): 29.70 inches Hg (1006.0 mb)
Winds: from the WSW (240 degrees) at 9 MPH (8 knots; 4.1 m/s)
Visibility: 6 or more miles (10+ km)
Ceiling: at least 12,000 feet AGL
Clouds: scattered clouds at 3300 feet AGL
Weather: no significant weather observed at this time

METAR text: ZYTX 180130Z 25003MPS 220V280 9999 FEW033 23/20 Q1006 NOSIG
Conditions at: ZYTX (SHENYANG/TAOKIAN, CN) observed 0130 UTC 18 August 2019
Temperature: 23.0°C (73°F)
Dewpoint: 20.0°C (68°F) [RH = 83%]
Pressure (altimeter): 29.70 inches Hg (1006.0 mb)
Winds: from the WSW (250 degrees) at 7 MPH (6 knots; 3.1 m/s)
Visibility: 6 or more miles (10+ km)
Ceiling: at least 12,000 feet AGL
Clouds: few clouds at 3300 feet AGL
Weather: no significant weather observed at this time

METAR text: ZYTX 180100Z 25003MPS 220V280 9999 FEW033 23/18 Q1006 NOSIG
Conditions at: ZYTX (SHENYANG/TAOKIAN, CN) observed 0100 UTC 18 August 2019
Temperature: 23.0°C (73°F)
Dewpoint: 18.0°C (64°F) [RH = 73%]
Pressure (altimeter): 29.70 inches Hg (1006.0 mb)
Winds: from the WSW (250 degrees) at 7 MPH (6 knots; 3.1 m/s)
Visibility: 6 or more miles (10+ km)
Ceiling: at least 12,000 feet AGL
Clouds: few clouds at 3300 feet AGL
Weather: no significant weather observed at this time

METAR text: ZYTX 180030Z 22003MPS 180V260 CAVOK 22/19 Q1006 NOSIG
Conditions at: ZYTX (SHENYANG/TAOKIAN, CN) observed 0030 UTC 18 August 2019
Temperature: 22.0°C (72°F)
Dewpoint: 19.0°C (66°F) [RH = 83%]
Pressure (altimeter): 29.70 inches Hg (1006.0 mb)
Winds: from the SW (220 degrees) at 7 MPH (6 knots; 3.1 m/s)
Visibility: 6 or more miles (10+ km)
Ceiling: ceiling and visibility are OK
Clouds: unknown
Weather: no significant weather observed at this time

METAR text: ZYTX 180000Z 21003MPS CAVOK 22/20 Q1005 NOSIG
Conditions at: ZYTX (SHENYANG/TAOKIAN, CN) observed 0000 UTC 18 August 2019
Temperature: 22.0°C (72°F)
Dewpoint: 20.0°C (68°F) [RH = 88%]
Pressure (altimeter): 29.68 inches Hg (1005.0 mb)
Winds: from the SSW (210 degrees) at 7 MPH (6 knots; 3.1 m/s)
Visibility: 6 or more miles (10+ km)
Ceiling: ceiling and visibility are OK
Clouds: unknown
Weather: no significant weather observed at this time

METAR text: ZYTX 172330Z 21003MPS 170V240 CAVOK 21/20 Q1005 NOSIG
Conditions at: ZYTX (SHENYANG/TAOKIAN, CN) observed 2330 UTC 17 August 2019
Temperature: 21.0°C (70°F)
Dewpoint: 20.0°C (68°F) [RH = 94%]
Pressure (altimeter): 29.68 inches Hg (1005.0 mb)
Winds: from the SSW (210 degrees) at 7 MPH (6 knots; 3.1 m/s)
Visibility: 6 or more miles (10+ km)
Ceiling: ceiling and visibility are OK
Clouds: unknown
Weather: no significant weather observed at this time

METAR text: ZYTX 172300Z 21002MPS 190V250 6000 NSC 20/20 Q1005 NOSIG
Conditions at: ZYTX (SHENYANG/TAOKIAN, CN) observed 2300 UTC 17 August 2019
Temperature: 20.0°C (68°F)
Dewpoint: 20.0°C (68°F) [RH = 100%]
Pressure (altimeter): 29.68 inches Hg (1005.0 mb)
Winds: from the SSW (210 degrees) at 5 MPH (4 knots; 2.1 m/s)
Visibility: 4 miles ( 6 km)
Ceiling: at least 12,000 feet AGL
Clouds: sky clear below 12,000 feet AGL
Weather: no significant weather observed at this time

METAR text: ZYTX 172230Z 21002MPS 4500 BR NSC 19/19 Q1005 NOSIG
Conditions at: ZYTX (SHENYANG/TAOKIAN, CN) observed 2230 UTC 17 August 2019
Temperature: 19.0°C (66°F)
Dewpoint: 19.0°C (66°F) [RH = 100%]
Pressure (altimeter): 29.68 inches Hg (1005.0 mb)
Winds: from the SSW (210 degrees) at 5 MPH (4 knots; 2.1 m/s)
Visibility: 2.80 miles (4.51 km)
Ceiling: at least 12,000 feet AGL
Clouds: sky clear below 12,000 feet AGL
Weather: BR  (mist)

METAR text: ZYTX 172200Z 19002MPS 4000 BR NSC 18/18 Q1005 NOSIG
Conditions at: ZYTX (SHENYANG/TAOKIAN, CN) observed 2200 UTC 17 August 2019
Temperature: 18.0°C (64°F)
Dewpoint: 18.0°C (64°F) [RH = 100%]
Pressure (altimeter): 29.68 inches Hg (1005.0 mb)
Winds: from the S (190 degrees) at 5 MPH (4 knots; 2.1 m/s)
Visibility: 2.49 miles (4.01 km)
Ceiling: at least 12,000 feet AGL
Clouds: sky clear below 12,000 feet AGL
Weather: BR  (mist)

METAR text: ZYTX 172130Z VRB01MPS 5000 BR NSC 17/17 Q1004 NOSIG
Conditions at: ZYTX (SHENYANG/TAOKIAN, CN) observed 2130 UTC 17 August 2019
Temperature: 17.0°C (63°F)
Dewpoint: 17.0°C (63°F) [RH = 100%]
Pressure (altimeter): 29.65 inches Hg (1004.0 mb)
Winds: variable direction winds at 2 MPH (2 knots; 1.0 m/s)
Visibility: 3 miles ( 5 km)
Ceiling: at least 12,000 feet AGL
Clouds: sky clear below 12,000 feet AGL
Weather: BR  (mist)

METAR text: ZYTX 172100Z 21001MPS 4000 BR NSC 18/18 Q1004 NOSIG
Conditions at: ZYTX (SHENYANG/TAOKIAN, CN) observed 2100 UTC 17 August 2019
Temperature: 18.0°C (64°F)
Dewpoint: 18.0°C (64°F) [RH = 100%]
Pressure (altimeter): 29.65 inches Hg (1004.0 mb)
Winds: from the SSW (210 degrees) at 2 MPH (2 knots; 1.0 m/s)
Visibility: 2.49 miles (4.01 km)
Ceiling: at least 12,000 feet AGL
Clouds: sky clear below 12,000 feet AGL
Weather: BR  (mist)

METAR text: ZYTX 172030Z 20001MPS 4000 BR NSC 18/18 Q1004 NOSIG
Conditions at: ZYTX (SHENYANG/TAOKIAN, CN) observed 2030 UTC 17 August 2019
Temperature: 18.0°C (64°F)
Dewpoint: 18.0°C (64°F) [RH = 100%]
Pressure (altimeter): 29.65 inches Hg (1004.0 mb)
Winds: from the SSW (200 degrees) at 2 MPH (2 knots; 1.0 m/s)
Visibility: 2.49 miles (4.01 km)
Ceiling: at least 12,000 feet AGL
Clouds: sky clear below 12,000 feet AGL
Weather: BR  (mist)

METAR text: ZYTX 172000Z VRB01MPS 3500 BR NSC 17/17 Q1004 BECMG TL2130 2500
Conditions at: ZYTX (SHENYANG/TAOKIAN, CN) observed 2000 UTC 17 August 2019
Temperature: 17.0°C (63°F)
Dewpoint: 17.0°C (63°F) [RH = 100%]
Pressure (altimeter): 29.65 inches Hg (1004.0 mb)
Winds: variable direction winds at 2 MPH (2 knots; 1.0 m/s)
Visibility: 2.17 miles (3.49 km)
Ceiling: at least 12,000 feet AGL
Clouds: sky clear below 12,000 feet AGL
Weather: BR  (mist)

METAR text: ZYTX 171930Z VRB01MPS 3500 BR NSC 17/17 Q1003 NOSIG
Conditions at: ZYTX (SHENYANG/TAOKIAN, CN) observed 1930 UTC 17 August 2019
Temperature: 17.0°C (63°F)
Dewpoint: 17.0°C (63°F) [RH = 100%]
Pressure (altimeter): 29.62 inches Hg (1003.0 mb)
Winds: variable direction winds at 2 MPH (2 knots; 1.0 m/s)
Visibility: 2.17 miles (3.49 km)
Ceiling: at least 12,000 feet AGL
Clouds: sky clear below 12,000 feet AGL
Weather: BR  (mist)

METAR text: ZYTX 171900Z 00000MPS 4000 BR NSC 18/18 Q1003 NOSIG
Conditions at: ZYTX (SHENYANG/TAOKIAN, CN) observed 1900 UTC 17 August 2019
Temperature: 18.0°C (64°F)
Dewpoint: 18.0°C (64°F) [RH = 100%]
Pressure (altimeter): 29.62 inches Hg (1003.0 mb)
Winds: calm
Visibility: 2.49 miles (4.01 km)
Ceiling: at least 12,000 feet AGL
Clouds: sky clear below 12,000 feet AGL
Weather: BR  (mist)

METAR text: ZYTX 171830Z VRB01MPS 5000 BR NSC 18/18 Q1003 NOSIG
Conditions at: ZYTX (SHENYANG/TAOKIAN, CN) observed 1830 UTC 17 August 2019
Temperature: 18.0°C (64°F)
Dewpoint: 18.0°C (64°F) [RH = 100%]
Pressure (altimeter): 29.62 inches Hg (1003.0 mb)
Winds: variable direction winds at 2 MPH (2 knots; 1.0 m/s)
Visibility: 3 miles ( 5 km)
Ceiling: at least 12,000 feet AGL
Clouds: sky clear below 12,000 feet AGL
Weather: BR  (mist)

METAR text: ZYTX 171800Z 19001MPS 6000 NSC 18/18 Q1003 NOSIG
Conditions at: ZYTX (SHENYANG/TAOKIAN, CN) observed 1800 UTC 17 August 2019
Temperature: 18.0°C (64°F)
Dewpoint: 18.0°C (64°F) [RH = 100%]
Pressure (altimeter): 29.62 inches Hg (1003.0 mb)
Winds: from the S (190 degrees) at 2 MPH (2 knots; 1.0 m/s)
Visibility: 4 miles ( 6 km)
Ceiling: at least 12,000 feet AGL
Clouds: sky clear below 12,000 feet AGL
Weather: no significant weather observed at this time

METAR text: ZYTX 171730Z 20001MPS 6000 NSC 18/18 Q1003 NOSIG
Conditions at: ZYTX (SHENYANG/TAOKIAN, CN) observed 1730 UTC 17 August 2019
Temperature: 18.0°C (64°F)
Dewpoint: 18.0°C (64°F) [RH = 100%]
Pressure (altimeter): 29.62 inches Hg (1003.0 mb)
Winds: from the SSW (200 degrees) at 2 MPH (2 knots; 1.0 m/s)
Visibility: 4 miles ( 6 km)
Ceiling: at least 12,000 feet AGL
Clouds: sky clear below 12,000 feet AGL
Weather: no significant weather observed at this time

METAR text: ZYTX 171700Z 20002MPS 7000 NSC 18/18 Q1003 NOSIG
Conditions at: ZYTX (SHENYANG/TAOKIAN, CN) observed 1700 UTC 17 August 2019
Temperature: 18.0°C (64°F)
Dewpoint: 18.0°C (64°F) [RH = 100%]
Pressure (altimeter): 29.62 inches Hg (1003.0 mb)
Winds: from the SSW (200 degrees) at 5 MPH (4 knots; 2.1 m/s)
Visibility: 4 miles ( 7 km)
Ceiling: at least 12,000 feet AGL
Clouds: sky clear below 12,000 feet AGL
Weather: no significant weather observed at this time

METAR text: ZYTX 171630Z 19002MPS 9999 BKN040 18/18 Q1003 NOSIG
Conditions at: ZYTX (SHENYANG/TAOKIAN, CN) observed 1630 UTC 17 August 2019
Temperature: 18.0°C (64°F)
Dewpoint: 18.0°C (64°F) [RH = 100%]
Pressure (altimeter): 29.62 inches Hg (1003.0 mb)
Winds: from the S (190 degrees) at 5 MPH (4 knots; 2.1 m/s)
Visibility: 6 or more miles (10+ km)
Ceiling: 4000 feet AGL
Clouds: broken clouds at 4000 feet AGL
Weather: no significant weather observed at this time

METAR text: ZYTX 171600Z 20002MPS 9999 BKN040 18/18 Q1003 NOSIG
Conditions at: ZYTX (SHENYANG/TAOKIAN, CN) observed 1600 UTC 17 August 2019
Temperature: 18.0°C (64°F)
Dewpoint: 18.0°C (64°F) [RH = 100%]
Pressure (altimeter): 29.62 inches Hg (1003.0 mb)
Winds: from the SSW (200 degrees) at 5 MPH (4 knots; 2.1 m/s)
Visibility: 6 or more miles (10+ km)
Ceiling: 4000 feet AGL
Clouds: broken clouds at 4000 feet AGL
Weather: no significant weather observed at this time

METAR text: ZYTX 171530Z VRB01MPS 9999 BKN040 19/19 Q1003 NOSIG
Conditions at: ZYTX (SHENYANG/TAOKIAN, CN) observed 1530 UTC 17 August 2019
Temperature: 19.0°C (66°F)
Dewpoint: 19.0°C (66°F) [RH = 100%]
Pressure (altimeter): 29.62 inches Hg (1003.0 mb)
Winds: variable direction winds at 2 MPH (2 knots; 1.0 m/s)
Visibility: 6 or more miles (10+ km)
Ceiling: 4000 feet AGL
Clouds: broken clouds at 4000 feet AGL
Weather: no significant weather observed at this time

METAR text: ZYTX 171500Z VRB01MPS 9999 BKN040 18/18 Q1003 NOSIG
Conditions at: ZYTX (SHENYANG/TAOKIAN, CN) observed 1500 UTC 17 August 2019
Temperature: 18.0°C (64°F)
Dewpoint: 18.0°C (64°F) [RH = 100%]
Pressure (altimeter): 29.62 inches Hg (1003.0 mb)
Winds: variable direction winds at 2 MPH (2 knots; 1.0 m/s)
Visibility: 6 or more miles (10+ km)
Ceiling: 4000 feet AGL
Clouds: broken clouds at 4000 feet AGL
Weather: no significant weather observed at this time

METAR text: ZYTX 171430Z VRB01MPS 9999 BKN040 19/19 Q1003 NOSIG
Conditions at: ZYTX (SHENYANG/TAOKIAN, CN) observed 1430 UTC 17 August 2019
Temperature: 19.0°C (66°F)
Dewpoint: 19.0°C (66°F) [RH = 100%]
Pressure (altimeter): 29.62 inches Hg (1003.0 mb)
Winds: variable direction winds at 2 MPH (2 knots; 1.0 m/s)
Visibility: 6 or more miles (10+ km)
Ceiling: 4000 feet AGL
Clouds: broken clouds at 4000 feet AGL
Weather: no significant weather observed at this time

METAR text: ZYTX 171400Z 17001MPS 9999 BKN040 19/19 Q1002 NOSIG
Conditions at: ZYTX (SHENYANG/TAOKIAN, CN) observed 1400 UTC 17 August 2019
Temperature: 19.0°C (66°F)
Dewpoint: 19.0°C (66°F) [RH = 100%]
Pressure (altimeter): 29.59 inches Hg (1002.0 mb)
Winds: from the S (170 degrees) at 2 MPH (2 knots; 1.0 m/s)
Visibility: 6 or more miles (10+ km)
Ceiling: 4000 feet AGL
Clouds: broken clouds at 4000 feet AGL
Weather: no significant weather observed at this time

METAR text: ZYTX 171330Z 22002MPS 9999 -SHRA FEW040CB BKN040 19/19 Q1002 NOSIG
Conditions at: ZYTX (SHENYANG/TAOKIAN, CN) observed 1330 UTC 17 August 2019
Temperature: 19.0°C (66°F)
Dewpoint: 19.0°C (66°F) [RH = 100%]
Pressure (altimeter): 29.59 inches Hg (1002.0 mb)
Winds: from the SW (220 degrees) at 5 MPH (4 knots; 2.1 m/s)
Visibility: 6 or more miles (10+ km)
Ceiling: 4000 feet AGL
Clouds: few clouds at 4000 feet AGL
broken clouds at 4000 feet AGL
Weather: -SHRA  (light rain showers)

METAR text: ZYTX 171300Z VRB01MPS 8000 -SHRA FEW033CB BKN033 19/19 Q1002 RESHRA NOSIG
Conditions at: ZYTX (SHENYANG/TAOKIAN, CN) observed 1300 UTC 17 August 2019
Temperature: 19.0°C (66°F)
Dewpoint: 19.0°C (66°F) [RH = 100%]
Pressure (altimeter): 29.59 inches Hg (1002.0 mb)
Winds: variable direction winds at 2 MPH (2 knots; 1.0 m/s)
Visibility: 5 miles ( 8 km)
Ceiling: 3300 feet AGL
Clouds: few clouds at 3300 feet AGL
broken clouds at 3300 feet AGL
Weather: -SHRA  (light rain showers)

METAR text: ZYTX 171230Z 22002MPS 8000 SHRA FEW033CB BKN033 19/19 Q1002 NOSIG
Conditions at: ZYTX (SHENYANG/TAOKIAN, CN) observed 1230 UTC 17 August 2019
Temperature: 19.0°C (66°F)
Dewpoint: 19.0°C (66°F) [RH = 100%]
Pressure (altimeter): 29.59 inches Hg (1002.0 mb)
Winds: from the SW (220 degrees) at 5 MPH (4 knots; 2.1 m/s)
Visibility: 5 miles ( 8 km)
Ceiling: 3300 feet AGL
Clouds: few clouds at 3300 feet AGL
broken clouds at 3300 feet AGL
Weather: SHRA  (rain showers)

Forecast for: ZYTX (SHENYANG/TAOKIAN, CN)
Text: TAF ZYTX 181905Z 1900/1924 22004MPS CAVOK TX29/1906Z TN18/1921Z
Forecast period: 0000 UTC 19 August 2019 to 0000 UTC 20 August 2019
Forecast type: FROM: standard forecast or significant change
Winds: from the SW (220 degrees) at 9 MPH (8 knots; 4.1 m/s)
Visibility: 6 or more miles 10+ km)
Ceiling: unknown
Clouds: missing
Weather: no significant weather forecast for this period